createdAt,value
2018-09-14T00:00:54.652Z,99.90
2018-09-14T00:03:25.075Z,99.90
2018-09-14T00:05:54.563Z,99.90
2018-09-14T00:08:27.193Z,99.90
2018-09-14T00:11:00.352Z,99.90
2018-09-14T00:13:30.556Z,99.90
2018-09-14T00:16:11.761Z,99.90
2018-09-14T00:18:53.665Z,99.90
2018-09-14T00:21:23.801Z,99.90
2018-09-14T00:23:54.713Z,99.90
2018-09-14T00:26:24.083Z,99.90
2018-09-14T00:28:53.793Z,99.90
2018-09-14T00:31:24.758Z,99.90
2018-09-14T00:33:53.959Z,99.90
2018-09-14T00:36:23.214Z,99.90
2018-09-14T00:38:52.198Z,99.90
2018-09-14T00:41:22.446Z,99.90
2018-09-14T00:43:56.272Z,99.90
2018-09-14T00:46:26.051Z,99.90
2018-09-14T00:48:56.387Z,99.90
2018-09-14T00:51:25.556Z,99.90
2018-09-14T00:54:01.181Z,99.90
2018-09-14T00:56:30.909Z,99.90
2018-09-14T00:59:01.414Z,99.90
2018-09-14T01:01:32.536Z,99.90
2018-09-14T01:04:01.791Z,99.90
2018-09-14T01:06:40.568Z,99.90
2018-09-14T01:09:15.580Z,99.90
2018-09-14T01:11:45.575Z,99.90
2018-09-14T01:14:16.846Z,99.90
2018-09-14T01:16:46.796Z,99.90
2018-09-14T01:19:31.139Z,99.90
2018-09-14T01:22:08.953Z,99.90
2018-09-14T01:24:38.456Z,99.90
2018-09-14T01:27:07.700Z,99.90
2018-09-14T01:29:36.902Z,99.90
2018-09-14T01:32:06.919Z,99.90
2018-09-14T01:34:36.116Z,99.90
2018-09-14T01:37:12.717Z,99.90
2018-09-14T01:39:44.717Z,99.90
2018-09-14T01:42:14.059Z,99.90
2018-09-14T01:44:44.758Z,99.90
2018-09-14T01:47:13.707Z,99.90
2018-09-14T01:49:45.809Z,99.90
2018-09-14T01:52:14.831Z,99.90
2018-09-14T01:54:44.223Z,99.90
2018-09-14T01:57:13.412Z,99.90
2018-09-14T01:59:44.881Z,99.90
2018-09-14T02:02:13.922Z,99.90
2018-09-14T02:04:43.030Z,99.90
2018-09-14T02:07:12.497Z,99.90
2018-09-14T02:09:41.833Z,99.90
2018-09-14T02:12:11.045Z,99.90
2018-09-14T02:14:40.049Z,99.90
2018-09-14T02:17:10.545Z,99.90
2018-09-14T02:19:39.977Z,99.90
2018-09-14T02:22:10.220Z,99.90
2018-09-14T02:24:41.631Z,99.90
2018-09-14T02:27:10.644Z,99.90
2018-09-14T02:29:39.965Z,99.90
2018-09-14T02:32:10.611Z,99.90
2018-09-14T02:34:40.184Z,99.90
2018-09-14T02:37:09.298Z,99.90
2018-09-14T02:39:39.179Z,99.90
2018-09-14T02:42:08.326Z,99.90
2018-09-14T02:44:43.194Z,99.90
2018-09-14T02:47:14.439Z,99.90
2018-09-14T02:49:44.665Z,99.90
2018-09-14T02:52:13.854Z,99.90
2018-09-14T02:54:45.004Z,99.90
2018-09-14T02:57:16.685Z,99.90
2018-09-14T02:59:47.368Z,99.90
2018-09-14T03:02:18.198Z,99.90
2018-09-14T03:04:49.043Z,99.90
2018-09-14T03:07:19.987Z,99.90
2018-09-14T03:09:49.854Z,99.90
2018-09-14T03:12:19.916Z,99.90
2018-09-14T03:14:50.450Z,99.90
2018-09-14T03:17:20.341Z,99.90
2018-09-14T03:19:50.637Z,99.90
2018-09-14T03:22:21.684Z,99.90
2018-09-14T03:24:52.562Z,99.90
2018-09-14T03:27:21.621Z,99.90
2018-09-14T03:29:52.460Z,99.90
2018-09-14T03:32:23.273Z,99.90
2018-09-14T03:35:09.969Z,99.90
2018-09-14T03:37:53.012Z,99.90
2018-09-14T03:40:31.386Z,99.90
2018-09-14T03:43:00.500Z,99.90
2018-09-14T03:45:30.039Z,99.90
2018-09-14T03:47:59.239Z,99.90
2018-09-14T03:50:29.361Z,99.90
2018-09-14T03:52:58.989Z,99.90
2018-09-14T03:55:29.126Z,99.90
2018-09-14T03:57:58.759Z,99.90
2018-09-14T04:00:28.568Z,99.90
2018-09-14T04:02:58.272Z,99.90
2018-09-14T04:05:29.000Z,99.90
2018-09-14T04:07:58.076Z,99.90
2018-09-14T04:10:28.542Z,99.90
2018-09-14T04:13:07.005Z,99.90
2018-09-14T04:15:44.791Z,99.90
2018-09-14T04:18:24.656Z,99.90
2018-09-14T04:20:55.450Z,99.90
2018-09-14T04:23:24.551Z,99.90
2018-09-14T04:25:53.581Z,99.90
2018-09-14T04:28:25.200Z,99.90
2018-09-14T04:30:54.376Z,99.90
2018-09-14T04:33:23.644Z,99.90
2018-09-14T04:35:52.627Z,99.90
2018-09-14T04:38:21.752Z,99.90
2018-09-14T04:40:53.608Z,99.90
2018-09-14T04:43:23.145Z,99.90
2018-09-14T04:45:52.279Z,99.90
2018-09-14T04:48:25.387Z,99.90
2018-09-14T04:51:09.811Z,99.90
2018-09-14T04:53:49.184Z,99.90
2018-09-14T04:56:20.086Z,99.90
2018-09-14T04:58:51.337Z,99.90
2018-09-14T05:01:21.306Z,99.90
2018-09-14T05:03:52.738Z,99.90
2018-09-14T05:06:21.836Z,99.90
2018-09-14T05:08:52.502Z,99.90
2018-09-14T05:11:21.602Z,99.90
2018-09-14T05:13:55.251Z,99.90
2018-09-14T05:16:34.454Z,99.90
2018-09-14T05:19:03.570Z,99.90
2018-09-14T05:21:32.734Z,99.90
2018-09-14T05:24:01.768Z,99.90
2018-09-14T05:26:31.024Z,99.90
2018-09-14T05:29:00.270Z,99.90
2018-09-14T05:31:29.386Z,99.90
2018-09-14T05:34:01.891Z,99.90
2018-09-14T05:36:32.420Z,99.90
2018-09-14T05:39:02.177Z,99.90
2018-09-14T05:41:31.127Z,99.90
2018-09-14T05:44:00.419Z,99.90
2018-09-14T05:46:30.242Z,99.90
2018-09-14T05:49:00.238Z,99.90
2018-09-14T05:51:31.465Z,99.90
2018-09-14T05:54:01.664Z,99.90
2018-09-14T05:56:30.706Z,99.90
2018-09-14T05:59:02.163Z,99.90
2018-09-14T06:01:31.251Z,99.90
2018-09-14T06:04:04.180Z,99.90
2018-09-14T06:06:34.382Z,99.90
2018-09-14T06:09:04.878Z,99.90
2018-09-14T06:11:37.360Z,99.90
2018-09-14T06:14:07.196Z,99.90
2018-09-14T06:16:36.884Z,99.90
2018-09-14T06:19:07.926Z,99.90
2018-09-14T06:21:44.628Z,99.90
2018-09-14T06:24:21.402Z,99.90
2018-09-14T06:26:52.030Z,99.90
2018-09-14T06:29:21.401Z,99.90
2018-09-14T06:31:55.999Z,99.90
2018-09-14T06:34:25.379Z,99.90
2018-09-14T06:36:54.361Z,99.90
2018-09-14T06:39:25.830Z,99.90
2018-09-14T06:41:54.878Z,99.90
2018-09-14T06:44:25.419Z,99.90
2018-09-14T06:46:54.843Z,99.90
2018-09-14T06:49:24.755Z,99.90
2018-09-14T06:51:53.873Z,99.90
2018-09-14T06:54:23.327Z,99.90
2018-09-14T06:56:53.673Z,99.90
2018-09-14T06:59:25.295Z,99.90
2018-09-14T07:01:54.759Z,99.90
2018-09-14T07:04:24.194Z,99.90
2018-09-14T07:06:54.274Z,99.90
2018-09-14T07:09:27.662Z,99.90
2018-09-14T07:11:57.835Z,99.90
2018-09-14T07:14:27.987Z,99.90
2018-09-14T07:16:58.874Z,99.90
2018-09-14T07:19:28.182Z,99.90
2018-09-14T07:22:02.848Z,99.90
2018-09-14T07:24:34.557Z,99.90
2018-09-14T07:27:05.135Z,99.90
2018-09-14T07:29:35.611Z,99.90
2018-09-14T07:32:05.760Z,99.90
2018-09-14T07:34:35.409Z,99.90
2018-09-14T07:37:05.201Z,99.90
2018-09-14T07:39:36.018Z,99.90
2018-09-14T07:42:05.440Z,99.90
2018-09-14T07:44:34.593Z,99.90
2018-09-14T07:47:09.524Z,99.90
2018-09-14T07:49:39.202Z,99.90
2018-09-14T07:52:08.418Z,99.90
2018-09-14T07:54:40.355Z,99.90
2018-09-14T07:57:11.760Z,99.90
2018-09-14T07:59:42.275Z,99.90
2018-09-14T08:02:14.760Z,99.90
2018-09-14T08:04:45.721Z,99.90
2018-09-14T08:07:18.190Z,99.90
2018-09-14T08:09:47.728Z,99.90
2018-09-14T08:12:18.736Z,99.90
2018-09-14T08:14:48.408Z,99.90
2018-09-14T08:17:21.878Z,99.90
2018-09-14T08:19:52.356Z,99.90
2018-09-14T08:22:22.027Z,99.90
2018-09-14T08:24:51.609Z,99.90
2018-09-14T08:27:21.438Z,99.90
2018-09-14T08:30:06.197Z,99.90
2018-09-14T08:32:46.356Z,99.90
2018-09-14T08:35:16.441Z,99.90
2018-09-14T08:37:46.392Z,99.90
2018-09-14T08:40:26.725Z,99.90
2018-09-14T08:43:03.933Z,99.90
2018-09-14T08:45:33.868Z,99.90
2018-09-14T08:48:04.827Z,99.90
2018-09-14T08:50:35.701Z,99.90
2018-09-14T08:53:05.982Z,99.90
2018-09-14T08:55:37.705Z,99.90
2018-09-14T08:58:09.768Z,99.90
2018-09-14T09:00:46.856Z,99.90
2018-09-14T09:03:20.807Z,99.90
2018-09-14T09:05:51.429Z,99.90
2018-09-14T09:08:20.682Z,99.90
2018-09-14T09:10:49.992Z,99.90
2018-09-14T09:13:22.252Z,99.90
2018-09-14T09:15:51.595Z,99.90
2018-09-14T09:18:21.929Z,98.70
2018-09-14T09:20:51.168Z,97.50
2018-09-14T09:23:21.547Z,94.80
2018-09-14T09:25:50.808Z,90.90
2018-09-14T09:28:20.467Z,82.20
2018-09-14T09:30:50.660Z,75.60
2018-09-14T09:33:20.992Z,73.00
2018-09-14T09:35:50.619Z,67.40
2018-09-14T09:38:19.816Z,62.60
2018-09-14T09:40:49.207Z,60.40
2018-09-14T09:43:19.606Z,59.60
2018-09-14T09:45:50.809Z,59.10
2018-09-14T09:48:21.304Z,60.10
2018-09-14T09:50:54.230Z,59.70
2018-09-14T09:53:24.358Z,60.30
2018-09-14T09:55:53.970Z,58.40
2018-09-14T09:58:23.278Z,56.70
2018-09-14T10:00:57.562Z,55.30
2018-09-14T10:03:38.162Z,53.60
2018-09-14T10:06:13.613Z,55.00
2018-09-14T10:08:42.871Z,55.70
2018-09-14T10:11:12.661Z,55.30
2018-09-14T10:17:05.376Z,57.10
2018-09-14T10:19:37.462Z,51.90
2018-09-14T10:22:23.896Z,51.30
2018-09-14T10:24:53.940Z,47.10
2018-09-14T10:27:23.916Z,47.00
2018-09-14T10:31:00.234Z,48.90
2018-09-14T10:33:31.164Z,52.50
2018-09-14T10:36:04.281Z,53.10
2018-09-14T10:38:33.943Z,49.40
2018-09-14T10:41:04.517Z,48.90
2018-09-14T10:43:39.767Z,49.20
2018-09-14T10:46:10.019Z,48.10
2018-09-14T10:48:43.975Z,45.50
2018-09-14T10:51:15.277Z,41.50
2018-09-14T10:53:52.272Z,40.40
2018-09-14T10:56:31.736Z,41.20
2018-09-14T10:59:02.267Z,43.10
2018-09-14T11:01:33.284Z,45.20
2018-09-14T11:04:04.178Z,45.10
2018-09-14T11:06:36.825Z,45.00
2018-09-14T11:09:13.945Z,46.50
2018-09-14T11:11:57.341Z,48.40
2018-09-14T11:14:28.135Z,49.50
2018-09-14T11:16:58.448Z,48.70
2018-09-14T11:19:30.342Z,50.10
2018-09-14T11:22:00.937Z,49.40
2018-09-14T11:24:31.324Z,49.00
2018-09-14T11:27:14.728Z,46.00
2018-09-14T11:29:58.442Z,45.00
2018-09-14T11:32:30.242Z,45.80
2018-09-14T11:34:59.507Z,47.30
2018-09-14T11:37:35.617Z,50.00
2018-09-14T11:40:06.702Z,50.80
2018-09-14T11:42:38.548Z,51.50
2018-09-14T11:45:08.334Z,51.50
2018-09-14T11:47:38.612Z,51.50
2018-09-14T11:50:08.565Z,48.90
2018-09-14T11:52:37.782Z,45.30
2018-09-14T11:55:08.342Z,43.40
2018-09-14T11:57:38.935Z,41.20
2018-09-14T12:00:10.883Z,37.80
2018-09-14T12:02:41.564Z,36.80
2018-09-14T12:05:12.662Z,36.30
2018-09-14T12:07:42.939Z,36.00
2018-09-14T12:10:12.916Z,38.00
2018-09-14T12:12:47.328Z,40.90
2018-09-14T12:15:17.599Z,43.50
2018-09-14T12:17:48.661Z,44.60
2018-09-14T12:20:23.866Z,45.70
2018-09-14T12:22:56.415Z,46.50
2018-09-14T12:25:26.169Z,43.50
2018-09-14T12:28:11.876Z,41.80
2018-09-14T12:30:48.799Z,40.60
2018-09-14T12:33:21.529Z,39.30
2018-09-14T12:35:52.627Z,39.50
2018-09-14T12:38:22.074Z,38.40
2018-09-14T12:40:52.324Z,37.30
2018-09-14T12:46:06.654Z,34.80
2018-09-14T12:48:38.518Z,36.30
2018-09-14T12:51:12.176Z,37.20
2018-09-14T12:53:45.543Z,37.50
2018-09-14T12:56:26.009Z,39.30
2018-09-14T12:58:58.833Z,40.50
2018-09-14T13:01:50.149Z,42.50
2018-09-14T13:04:20.399Z,42.70
2018-09-14T13:06:51.494Z,43.10
2018-09-14T13:09:21.087Z,42.90
2018-09-14T13:11:51.538Z,42.60
2018-09-14T13:14:25.135Z,40.40
2018-09-14T13:16:54.955Z,37.30
2018-09-14T13:19:40.227Z,35.00
2018-09-14T13:22:13.426Z,36.20
2018-09-14T13:24:44.274Z,37.80
2018-09-14T13:27:15.393Z,36.80
2018-09-14T13:29:48.960Z,36.20
2018-09-14T13:32:20.289Z,36.10
2018-09-14T13:34:49.828Z,36.30
2018-09-14T13:37:36.946Z,38.20
2018-09-14T13:40:11.889Z,40.70
2018-09-14T13:42:47.688Z,39.60
2018-09-14T13:45:21.726Z,38.50
2018-09-14T13:48:02.716Z,37.50
2018-09-14T13:50:35.785Z,39.70
2018-09-14T13:53:21.865Z,41.00
2018-09-14T13:55:57.432Z,42.00
2018-09-14T14:01:44.211Z,44.40
2018-09-14T14:07:20.495Z,45.70
2018-09-14T14:09:55.981Z,46.40
2018-09-14T14:12:39.476Z,45.70
2018-09-14T14:15:21.764Z,46.10
2018-09-14T14:17:55.305Z,45.40
2018-09-14T14:20:26.014Z,45.60
2018-09-14T14:23:01.615Z,45.80
2018-09-14T14:26:00.153Z,45.40
2018-09-14T14:28:34.980Z,45.00
2018-09-14T14:31:09.325Z,45.20
2018-09-14T14:33:46.519Z,45.70
2018-09-14T14:36:23.739Z,46.00
2018-09-14T14:38:59.311Z,45.70
2018-09-14T14:41:30.060Z,45.00
2018-09-14T14:44:11.183Z,45.10
2018-09-14T14:49:48.228Z,44.80
2018-09-14T14:52:23.208Z,45.10
2018-09-14T14:54:56.301Z,45.40
2018-09-14T14:57:25.917Z,46.10
2018-09-14T14:59:55.450Z,46.30
2018-09-14T15:02:26.175Z,45.90
2018-09-14T15:04:59.107Z,45.90
2018-09-14T15:07:35.483Z,45.60
2018-09-14T15:10:08.554Z,45.80
2018-09-14T15:12:40.573Z,45.70
2018-09-14T15:15:11.195Z,45.60
2018-09-14T15:17:43.208Z,45.20
2018-09-14T15:20:16.364Z,45.40
2018-09-14T15:22:46.635Z,44.90
2018-09-14T15:25:21.487Z,45.80
2018-09-14T15:27:52.828Z,45.30
2018-09-14T15:30:22.629Z,45.30
2018-09-14T15:32:52.146Z,45.90
2018-09-14T15:35:21.746Z,45.80
2018-09-14T15:37:58.339Z,45.80
2018-09-14T15:40:52.712Z,45.70
2018-09-14T15:43:38.088Z,44.90
2018-09-14T15:46:16.571Z,45.00
2018-09-14T15:48:52.724Z,44.70
2018-09-14T15:51:42.852Z,44.30
2018-09-14T15:54:20.251Z,44.80
2018-09-14T16:02:31.664Z,45.00
2018-09-14T16:05:29.199Z,45.00
2018-09-14T16:08:04.599Z,45.10
2018-09-14T16:10:44.151Z,45.80
2018-09-14T16:13:47.922Z,45.80
2018-09-14T16:16:28.613Z,45.40
2018-09-14T16:19:03.049Z,45.90
2018-09-14T16:21:39.473Z,46.00
2018-09-14T16:27:16.028Z,46.10
2018-09-14T16:29:47.281Z,46.10
2018-09-14T16:32:37.284Z,46.50
2018-09-14T16:35:32.406Z,47.10
2018-09-14T16:38:09.736Z,47.40
2018-09-14T16:40:41.417Z,46.90
2018-09-14T16:43:12.759Z,47.40
2018-09-14T16:45:51.831Z,47.40
2018-09-14T16:48:22.240Z,47.40
2018-09-14T16:50:56.093Z,47.50
2018-09-14T16:53:26.750Z,47.80
2018-09-14T16:56:01.234Z,48.30
2018-09-14T16:58:43.874Z,48.80
2018-09-14T17:01:27.052Z,48.50
2018-09-14T17:03:57.282Z,49.00
2018-09-14T17:06:33.958Z,49.60
2018-09-14T17:09:16.542Z,48.80
2018-09-14T17:11:53.489Z,49.20
2018-09-14T17:14:34.361Z,49.20
2018-09-14T17:17:33.325Z,49.70
2018-09-14T17:20:06.196Z,49.50
2018-09-14T17:22:49.581Z,49.90
2018-09-14T17:25:21.412Z,50.00
2018-09-14T17:30:38.474Z,50.80
2018-09-14T17:33:56.668Z,51.50
2018-09-14T17:36:38.531Z,50.60
2018-09-14T17:39:22.689Z,51.20
2018-09-14T17:42:05.085Z,51.50
2018-09-14T17:44:36.041Z,51.90
2018-09-14T17:47:07.026Z,52.10
2018-09-14T17:49:54.562Z,52.30
2018-09-14T17:52:30.266Z,52.70
2018-09-14T17:55:04.088Z,52.90
2018-09-14T17:57:34.206Z,53.80
2018-09-14T18:00:07.067Z,53.20
2018-09-14T18:02:40.093Z,53.90
2018-09-14T18:05:15.807Z,53.80
2018-09-14T18:08:01.403Z,53.80
2018-09-14T18:13:22.328Z,54.20
2018-09-14T18:19:04.026Z,54.30
2018-09-14T18:21:52.416Z,54.80
2018-09-14T18:24:25.711Z,54.90
2018-09-14T18:27:26.079Z,55.40
2018-09-14T18:30:03.260Z,55.20
2018-09-14T18:32:39.237Z,55.70
2018-09-14T18:35:15.821Z,55.30
2018-09-14T18:38:29.384Z,55.40
2018-09-14T18:41:31.128Z,55.60
2018-09-14T18:44:40.497Z,56.80
2018-09-14T18:47:19.649Z,56.70
2018-09-14T18:49:57.717Z,56.40
2018-09-14T18:52:31.504Z,56.30
2018-09-14T18:55:08.360Z,56.50
2018-09-14T18:58:14.191Z,56.50
2018-09-14T19:00:55.405Z,57.80
2018-09-14T19:03:33.910Z,58.30
2018-09-14T19:06:08.722Z,57.80
2018-09-14T19:09:13.745Z,58.20
2018-09-14T19:11:55.705Z,57.80
2018-09-14T19:14:31.745Z,58.60
2018-09-14T19:17:24.190Z,59.10
2018-09-14T19:20:01.424Z,59.80
2018-09-14T19:22:53.613Z,60.00
2018-09-14T19:25:25.303Z,61.00
2018-09-14T19:28:04.972Z,61.70
2018-09-14T19:30:42.751Z,61.80
2018-09-14T19:33:30.914Z,63.60
2018-09-14T19:36:13.511Z,64.00
2018-09-14T19:39:29.165Z,63.90
2018-09-14T19:42:53.853Z,64.00
2018-09-14T19:45:29.944Z,64.40
2018-09-14T19:48:22.272Z,66.00
2018-09-14T19:54:13.595Z,66.50
2018-09-14T19:56:55.454Z,67.50
2018-09-14T20:08:15.555Z,69.90
2018-09-14T20:11:00.359Z,70.50
2018-09-14T20:13:49.314Z,71.50
2018-09-14T20:16:24.356Z,72.20
2018-09-14T20:19:00.651Z,72.50
2018-09-14T20:21:39.096Z,73.20
2018-09-14T20:24:26.415Z,73.40
2018-09-14T20:27:01.545Z,74.30
2018-09-14T20:29:36.694Z,75.50
2018-09-14T20:32:08.654Z,77.00
2018-09-14T20:34:49.226Z,75.60
2018-09-14T20:37:22.564Z,76.20
2018-09-14T20:40:00.134Z,76.70
2018-09-14T20:42:34.101Z,76.40
2018-09-14T20:45:22.575Z,77.00
2018-09-14T20:48:25.668Z,77.20
2018-09-14T20:51:23.684Z,77.70
2018-09-14T20:53:56.441Z,78.10
2018-09-14T20:56:28.286Z,79.30
2018-09-14T20:59:18.973Z,78.30
2018-09-14T21:01:56.278Z,78.80
2018-09-14T21:04:56.982Z,79.40
2018-09-14T21:07:31.695Z,79.60
2018-09-14T21:13:04.657Z,81.20
2018-09-14T21:19:23.021Z,83.00
2018-09-14T21:22:18.614Z,82.60
2018-09-14T21:25:18.525Z,83.00
2018-09-14T21:28:06.460Z,84.70
2018-09-14T21:33:17.308Z,85.90
2018-09-14T21:36:23.868Z,86.20
2018-09-14T21:39:01.343Z,87.40
2018-09-14T21:41:37.685Z,88.00
2018-09-14T21:50:16.255Z,90.50
2018-09-14T21:52:51.814Z,90.40
2018-09-14T21:55:36.817Z,90.70
2018-09-14T21:58:20.075Z,90.50
2018-09-14T22:00:59.133Z,90.90
2018-09-14T22:03:45.534Z,91.80
2018-09-14T22:06:29.743Z,91.90
2018-09-14T22:09:13.226Z,92.40
2018-09-14T22:11:43.273Z,91.80
2018-09-14T22:14:18.879Z,91.90
2018-09-14T22:17:20.876Z,92.20
2018-09-14T22:19:59.531Z,92.50
2018-09-14T22:25:56.136Z,93.00
2018-09-14T22:28:40.301Z,93.00
2018-09-14T22:31:56.502Z,93.20
2018-09-14T22:34:53.695Z,93.10
2018-09-14T22:37:27.240Z,93.30
2018-09-14T22:39:58.312Z,93.50
2018-09-14T22:42:36.107Z,93.80
2018-09-14T22:45:06.723Z,93.90
2018-09-14T22:47:36.917Z,93.60
2018-09-14T22:50:08.646Z,93.40
2018-09-14T22:52:40.027Z,93.70
2018-09-14T22:55:15.493Z,93.00
2018-09-14T22:57:46.954Z,92.70
2018-09-14T23:00:25.186Z,93.50
2018-09-14T23:03:01.913Z,93.10
2018-09-14T23:05:35.088Z,93.10
2018-09-14T23:08:09.747Z,92.90
2018-09-14T23:10:54.483Z,93.10
2018-09-14T23:13:42.608Z,93.30
2018-09-14T23:16:13.213Z,93.60
2018-09-14T23:18:52.813Z,93.80
2018-09-14T23:21:23.857Z,93.40
2018-09-14T23:24:01.793Z,93.30
2018-09-14T23:26:42.528Z,93.10
2018-09-14T23:29:24.583Z,93.10
2018-09-14T23:31:56.098Z,93.10
2018-09-14T23:34:26.026Z,93.30
2018-09-14T23:37:02.547Z,93.80
2018-09-14T23:42:17.087Z,94.10
2018-09-14T23:44:46.791Z,93.90
2018-09-14T23:47:21.169Z,94.20
2018-09-14T23:49:59.181Z,94.30
2018-09-14T23:52:29.407Z,94.50
2018-09-14T23:55:03.773Z,94.20
2018-09-14T23:57:34.603Z,94.40
